createdAt,value
2023-03-20T00:00:12.913Z,0.00
2023-03-20T00:01:12.915Z,0.00
2023-03-20T00:02:12.938Z,0.00
2023-03-20T00:03:12.958Z,0.00
2023-03-20T00:04:13.145Z,0.00
2023-03-20T00:05:12.984Z,0.00
2023-03-20T00:06:13.004Z,0.00
2023-03-20T00:07:13.019Z,0.00
2023-03-20T00:08:13.040Z,0.00
2023-03-20T00:09:13.058Z,0.00
2023-03-20T00:10:13.074Z,0.00
2023-03-20T00:11:13.092Z,0.00
2023-03-20T00:12:13.131Z,0.00
2023-03-20T00:13:13.126Z,0.00
2023-03-20T00:14:13.156Z,0.00
2023-03-20T00:15:13.162Z,0.00
2023-03-20T00:16:13.212Z,0.00
2023-03-20T00:17:13.187Z,0.00
2023-03-20T00:18:13.206Z,0.00
2023-03-20T00:19:13.224Z,0.00
2023-03-20T00:20:13.245Z,0.00
2023-03-20T00:21:13.264Z,0.00
2023-03-20T00:22:13.285Z,0.00
2023-03-20T00:23:13.298Z,0.00
2023-03-20T00:24:13.316Z,0.00
2023-03-20T00:25:13.326Z,0.00
2023-03-20T00:26:13.347Z,0.00
2023-03-20T00:27:13.370Z,0.00
2023-03-20T00:28:13.387Z,0.00
2023-03-20T00:29:13.401Z,0.00
2023-03-20T00:30:13.419Z,0.00
2023-03-20T00:31:13.510Z,0.00
2023-03-20T00:32:13.602Z,0.00
2023-03-20T00:33:13.569Z,0.00
2023-03-20T00:34:13.491Z,0.00
2023-03-20T00:35:13.497Z,0.00
2023-03-20T00:36:13.530Z,0.00
2023-03-20T00:37:13.539Z,0.00
2023-03-20T00:38:13.551Z,0.00
2023-03-20T00:39:13.575Z,0.00
2023-03-20T00:40:13.594Z,0.00
2023-03-20T00:41:13.601Z,0.00
2023-03-20T00:42:13.653Z,0.00
2023-03-20T00:43:13.636Z,0.00
2023-03-20T00:44:13.650Z,0.00
2023-03-20T00:45:13.672Z,0.00
2023-03-20T00:46:13.702Z,0.00
2023-03-20T00:47:13.716Z,0.00
2023-03-20T00:48:13.740Z,0.00
2023-03-20T00:49:13.746Z,0.00
2023-03-20T00:50:13.755Z,0.00
2023-03-20T00:51:13.772Z,0.00
2023-03-20T00:52:13.796Z,0.00
2023-03-20T00:53:13.812Z,0.00
2023-03-20T00:54:13.833Z,0.00
2023-03-20T00:55:13.848Z,0.00
2023-03-20T00:56:13.865Z,0.00
2023-03-20T00:57:13.874Z,0.00
2023-03-20T00:58:13.893Z,0.00
2023-03-20T00:59:13.909Z,0.00
2023-03-20T01:00:13.931Z,0.00
2023-03-20T01:01:13.998Z,0.00
2023-03-20T01:02:14.012Z,0.00
2023-03-20T01:03:13.988Z,0.00
2023-03-20T01:04:14.015Z,0.00
2023-03-20T01:05:14.018Z,0.00
2023-03-20T01:06:14.039Z,0.00
2023-03-20T01:07:14.067Z,0.00
2023-03-20T01:08:14.085Z,0.00
2023-03-20T01:09:14.078Z,0.00
2023-03-20T01:10:14.102Z,0.00
2023-03-20T01:11:14.121Z,0.00
2023-03-20T01:12:14.136Z,0.00
2023-03-20T01:13:14.153Z,0.00
2023-03-20T01:14:14.170Z,0.00
2023-03-20T01:15:14.185Z,0.00
2023-03-20T01:16:14.219Z,0.00
2023-03-20T01:17:14.214Z,0.00
2023-03-20T01:18:14.230Z,0.00
2023-03-20T01:19:14.271Z,0.00
2023-03-20T01:20:14.293Z,0.00
2023-03-20T01:21:14.280Z,0.00
2023-03-20T01:22:14.315Z,0.00
2023-03-20T01:23:14.324Z,0.00
2023-03-20T01:24:14.345Z,0.00
2023-03-20T01:25:14.355Z,0.00
2023-03-20T01:26:14.373Z,0.00
2023-03-20T01:27:14.390Z,0.00
2023-03-20T01:28:14.408Z,0.00
2023-03-20T01:29:14.415Z,0.00
2023-03-20T01:30:14.440Z,0.00
2023-03-20T01:31:14.459Z,0.00
2023-03-20T01:32:14.473Z,0.00
2023-03-20T01:33:14.531Z,0.00
2023-03-20T01:34:14.509Z,0.00
2023-03-20T01:35:14.524Z,0.00
2023-03-20T01:36:14.808Z,0.00
2023-03-20T01:37:14.557Z,0.00
2023-03-20T01:38:14.577Z,0.00
2023-03-20T01:39:14.585Z,0.00
2023-03-20T01:40:14.610Z,0.00
2023-03-20T01:41:14.634Z,0.00
2023-03-20T01:42:14.638Z,0.00
2023-03-20T01:43:14.655Z,0.00
2023-03-20T01:44:14.676Z,0.00
2023-03-20T01:45:14.692Z,0.00
2023-03-20T01:46:14.764Z,0.00
2023-03-20T01:47:14.731Z,0.00
2023-03-20T01:48:14.745Z,0.00
2023-03-20T01:49:14.764Z,0.00
2023-03-20T01:50:14.788Z,0.00
2023-03-20T01:51:14.791Z,0.00
2023-03-20T01:52:14.830Z,0.00
2023-03-20T01:53:14.835Z,0.00
2023-03-20T01:54:14.848Z,0.00
2023-03-20T01:55:14.864Z,0.00
2023-03-20T01:56:14.884Z,0.00
2023-03-20T01:57:14.899Z,0.00
2023-03-20T01:58:14.920Z,0.00
2023-03-20T01:59:14.926Z,0.00
2023-03-20T02:00:14.954Z,0.00
2023-03-20T02:01:14.990Z,0.00
2023-03-20T02:02:14.988Z,0.00
2023-03-20T02:03:14.995Z,0.00
2023-03-20T02:04:15.020Z,0.00
2023-03-20T02:05:15.040Z,0.00
2023-03-20T02:06:15.046Z,0.00
2023-03-20T02:07:15.060Z,0.00
2023-03-20T02:08:15.101Z,0.00
2023-03-20T02:09:15.107Z,0.00
2023-03-20T02:10:15.129Z,0.00
2023-03-20T02:11:15.138Z,0.00
2023-03-20T02:12:15.168Z,0.00
2023-03-20T02:13:15.171Z,0.00
2023-03-20T02:14:15.190Z,0.00
2023-03-20T02:15:15.196Z,0.00
2023-03-20T02:16:15.250Z,0.00
2023-03-20T02:17:15.233Z,0.00
2023-03-20T02:18:15.249Z,0.00
2023-03-20T02:19:15.262Z,0.00
2023-03-20T02:20:15.282Z,0.00
2023-03-20T02:21:15.299Z,0.00
2023-03-20T02:22:15.323Z,0.00
2023-03-20T02:23:15.338Z,0.00
2023-03-20T02:24:15.394Z,0.00
2023-03-20T02:25:15.405Z,0.00
2023-03-20T02:26:15.383Z,0.00
2023-03-20T02:27:15.403Z,0.00
2023-03-20T02:28:15.414Z,0.00
2023-03-20T02:29:15.433Z,0.00
2023-03-20T02:30:15.453Z,0.00
2023-03-20T02:31:15.560Z,0.00
2023-03-20T02:32:15.490Z,0.00
2023-03-20T02:33:15.498Z,0.00
2023-03-20T02:34:15.528Z,0.00
2023-03-20T02:35:15.541Z,0.00
2023-03-20T02:36:15.632Z,0.00
2023-03-20T02:37:15.575Z,0.00
2023-03-20T02:38:15.594Z,0.00
2023-03-20T02:39:15.607Z,0.00
2023-03-20T02:40:15.647Z,0.00
2023-03-20T02:41:15.659Z,0.00
2023-03-20T02:42:15.656Z,0.00
2023-03-20T02:43:15.674Z,0.00
2023-03-20T02:44:15.701Z,0.00
2023-03-20T02:45:15.708Z,0.00
2023-03-20T02:46:15.784Z,0.00
2023-03-20T02:47:15.738Z,0.00
2023-03-20T02:48:15.755Z,0.00
2023-03-20T02:49:15.768Z,0.00
2023-03-20T02:50:15.800Z,0.00
2023-03-20T02:51:15.811Z,0.00
2023-03-20T02:52:15.821Z,0.00
2023-03-20T02:53:15.851Z,0.00
2023-03-20T02:54:15.854Z,0.00
2023-03-20T02:55:15.886Z,0.00
2023-03-20T02:56:15.913Z,0.00
2023-03-20T02:57:15.916Z,0.00
2023-03-20T02:58:15.932Z,0.00
2023-03-20T02:59:15.939Z,0.00
2023-03-20T03:00:15.954Z,0.00
2023-03-20T03:01:16.015Z,0.00
2023-03-20T03:02:16.022Z,0.00
2023-03-20T03:03:16.012Z,0.00
2023-03-20T03:04:16.032Z,0.00
2023-03-20T03:05:16.040Z,0.00
2023-03-20T03:06:16.057Z,0.00
2023-03-20T03:07:16.074Z,0.00
2023-03-20T03:08:16.089Z,0.00
2023-03-20T03:09:17.825Z,0.00
2023-03-20T03:10:16.130Z,0.00
2023-03-20T03:11:16.146Z,0.00
2023-03-20T03:12:16.176Z,0.00
2023-03-20T03:13:16.179Z,0.00
2023-03-20T03:14:16.187Z,0.00
2023-03-20T03:15:16.209Z,0.00
2023-03-20T03:16:16.272Z,0.00
2023-03-20T03:17:16.243Z,0.00
2023-03-20T03:18:16.258Z,0.00
2023-03-20T03:19:16.272Z,0.00
2023-03-20T03:20:16.291Z,0.00
2023-03-20T03:21:16.324Z,0.00
2023-03-20T03:22:16.333Z,0.00
2023-03-20T03:23:16.347Z,0.00
2023-03-20T03:24:18.454Z,0.00
2023-03-20T03:25:16.374Z,0.00
2023-03-20T03:26:16.389Z,0.00
2023-03-20T03:27:16.413Z,0.00
2023-03-20T03:28:16.444Z,0.00
2023-03-20T03:29:16.446Z,0.00
2023-03-20T03:30:16.461Z,0.00
2023-03-20T03:31:16.577Z,0.00
2023-03-20T03:32:16.493Z,0.00
2023-03-20T03:33:16.552Z,0.00
2023-03-20T03:34:16.533Z,0.00
2023-03-20T03:35:16.544Z,0.00
2023-03-20T03:36:16.624Z,0.00
2023-03-20T03:37:16.582Z,0.00
2023-03-20T03:38:16.595Z,0.00
2023-03-20T03:39:16.618Z,0.00
2023-03-20T03:40:16.652Z,0.00
2023-03-20T03:41:16.645Z,0.00
2023-03-20T03:42:16.664Z,0.00
2023-03-20T03:43:16.686Z,0.00
2023-03-20T03:44:16.718Z,0.00
2023-03-20T03:45:16.715Z,0.00
2023-03-20T03:46:16.806Z,0.00
2023-03-20T03:47:16.746Z,0.00
2023-03-20T03:48:16.756Z,0.00
2023-03-20T03:49:16.774Z,0.00
2023-03-20T03:50:16.802Z,0.00
2023-03-20T03:51:16.818Z,0.00
2023-03-20T03:52:16.836Z,0.00
2023-03-20T03:53:16.852Z,0.00
2023-03-20T03:54:16.858Z,0.00
2023-03-20T03:55:16.873Z,0.00
2023-03-20T03:56:16.960Z,0.00
2023-03-20T03:57:16.925Z,0.00
2023-03-20T03:58:16.931Z,0.00
2023-03-20T03:59:16.950Z,0.00
2023-03-20T04:00:17.076Z,0.00
2023-03-20T04:01:16.984Z,0.00
2023-03-20T04:02:17.027Z,0.00
2023-03-20T04:03:17.024Z,0.00
2023-03-20T04:04:17.082Z,0.00
2023-03-20T04:05:17.049Z,0.00
2023-03-20T04:06:17.068Z,0.00
2023-03-20T04:07:17.088Z,0.00
2023-03-20T04:08:17.093Z,0.00
2023-03-20T04:09:17.112Z,0.00
2023-03-20T04:10:17.136Z,0.00
2023-03-20T04:11:17.163Z,0.00
2023-03-20T04:12:17.161Z,0.00
2023-03-20T04:13:17.186Z,0.00
2023-03-20T04:14:17.202Z,0.00
2023-03-20T04:15:17.225Z,0.00
2023-03-20T04:16:17.355Z,0.00
2023-03-20T04:17:17.246Z,0.00
2023-03-20T04:18:17.276Z,0.00
2023-03-20T04:19:17.289Z,0.00
2023-03-20T04:20:17.306Z,0.00
2023-03-20T04:21:17.319Z,0.00
2023-03-20T04:22:17.336Z,0.00
2023-03-20T04:23:17.356Z,0.00
2023-03-20T04:24:17.369Z,0.00
2023-03-20T04:25:17.386Z,0.00
2023-03-20T04:26:17.402Z,0.00
2023-03-20T04:27:17.420Z,0.00
2023-03-20T04:28:17.431Z,0.00
2023-03-20T04:29:17.450Z,0.00
2023-03-20T04:30:17.462Z,0.00
2023-03-20T04:31:17.545Z,0.00
2023-03-20T04:32:17.527Z,0.00
2023-03-20T04:33:17.515Z,0.00
2023-03-20T04:34:17.529Z,0.00
2023-03-20T04:35:17.548Z,0.00
2023-03-20T04:36:17.590Z,0.00
2023-03-20T04:37:17.578Z,0.00
2023-03-20T04:38:17.597Z,0.00
2023-03-20T04:39:17.617Z,0.00
2023-03-20T04:40:17.633Z,0.00
2023-03-20T04:41:17.653Z,0.00
2023-03-20T04:42:17.664Z,0.00
2023-03-20T04:43:17.690Z,0.00
2023-03-20T04:44:17.703Z,0.00
2023-03-20T04:45:17.715Z,0.00
2023-03-20T04:46:17.825Z,0.00
2023-03-20T04:47:17.752Z,0.00
2023-03-20T04:48:17.789Z,0.00
2023-03-20T04:49:17.779Z,0.00
2023-03-20T04:50:17.797Z,0.00
2023-03-20T04:51:17.825Z,0.00
2023-03-20T04:52:17.838Z,0.00
2023-03-20T04:53:17.850Z,0.00
2023-03-20T04:54:17.862Z,0.00
2023-03-20T04:55:17.878Z,0.00
2023-03-20T04:56:17.899Z,0.00
2023-03-20T04:57:17.918Z,0.00
2023-03-20T04:58:17.935Z,0.00
2023-03-20T04:59:17.944Z,0.00
2023-03-20T05:00:17.968Z,0.00
2023-03-20T05:01:18.097Z,0.00
2023-03-20T05:02:17.998Z,0.00
2023-03-20T05:03:18.016Z,0.00
2023-03-20T05:04:18.101Z,0.00
2023-03-20T05:05:18.050Z,0.00
2023-03-20T05:06:18.066Z,0.00
2023-03-20T05:07:18.088Z,0.00
2023-03-20T05:08:18.098Z,0.00
2023-03-20T05:09:18.114Z,0.00
2023-03-20T05:10:18.124Z,0.00
2023-03-20T05:11:18.146Z,0.00
2023-03-20T05:12:18.156Z,0.00
2023-03-20T05:13:18.178Z,0.00
2023-03-20T05:14:18.194Z,0.00
2023-03-20T05:15:18.216Z,0.00
2023-03-20T05:16:18.276Z,0.00
2023-03-20T05:17:18.242Z,0.00
2023-03-20T05:18:18.259Z,0.00
2023-03-20T05:19:18.279Z,0.00
2023-03-20T05:20:18.311Z,0.00
2023-03-20T05:21:18.305Z,0.00
2023-03-20T05:22:18.330Z,0.00
2023-03-20T05:23:18.338Z,0.00
2023-03-20T05:24:18.368Z,0.00
2023-03-20T05:25:18.385Z,0.00
2023-03-20T05:26:18.392Z,0.00
2023-03-20T05:27:18.405Z,0.00
2023-03-20T05:28:18.428Z,0.00
2023-03-20T05:29:18.448Z,0.00
2023-03-20T05:30:18.458Z,0.00
2023-03-20T05:31:18.489Z,0.00
2023-03-20T05:32:18.495Z,0.00
2023-03-20T05:33:18.543Z,0.00
2023-03-20T05:34:18.530Z,0.00
2023-03-20T05:35:18.540Z,0.00
2023-03-20T05:36:18.657Z,0.00
2023-03-20T05:37:18.574Z,0.00
2023-03-20T05:38:18.591Z,0.00
2023-03-20T05:39:18.602Z,0.00
2023-03-20T05:40:18.623Z,0.00
2023-03-20T05:41:18.636Z,0.00
2023-03-20T05:42:18.656Z,0.00
2023-03-20T05:43:18.675Z,0.00
2023-03-20T05:44:18.686Z,0.00
2023-03-20T05:45:18.705Z,0.00
2023-03-20T05:46:18.791Z,0.00
2023-03-20T05:47:18.749Z,0.00
2023-03-20T05:48:18.755Z,0.00
2023-03-20T05:49:18.781Z,0.00
2023-03-20T05:50:18.788Z,0.00
2023-03-20T05:51:18.803Z,0.00
2023-03-20T05:52:18.833Z,0.00
2023-03-20T05:53:18.839Z,0.00
2023-03-20T05:54:18.853Z,0.00
2023-03-20T05:55:18.862Z,0.00
2023-03-20T05:56:18.886Z,0.00
2023-03-20T05:57:18.904Z,0.00
2023-03-20T05:58:18.916Z,0.00
2023-03-20T05:59:18.936Z,0.00
2023-03-20T06:00:18.947Z,0.00
2023-03-20T06:01:18.970Z,0.00
2023-03-20T06:02:19.014Z,0.00
2023-03-20T06:03:19.066Z,0.00
2023-03-20T06:04:19.012Z,0.00
2023-03-20T06:05:19.029Z,0.00
2023-03-20T06:06:19.061Z,0.00
2023-03-20T06:07:19.069Z,0.00
2023-03-20T06:08:19.097Z,0.00
2023-03-20T06:09:19.102Z,0.00
2023-03-20T06:10:19.113Z,0.00
2023-03-20T06:11:19.150Z,0.00
2023-03-20T06:12:19.151Z,0.00
2023-03-20T06:13:19.174Z,0.00
2023-03-20T06:14:19.186Z,0.00
2023-03-20T06:15:19.206Z,0.00
2023-03-20T06:16:19.239Z,0.00
2023-03-20T06:17:19.237Z,0.00
2023-03-20T06:18:19.243Z,0.00
2023-03-20T06:19:19.267Z,0.00
2023-03-20T06:20:19.287Z,0.00
2023-03-20T06:21:19.292Z,0.00
2023-03-20T06:22:19.320Z,0.00
2023-03-20T06:23:19.332Z,0.00
2023-03-20T06:24:19.371Z,0.00
2023-03-20T06:25:19.365Z,0.00
2023-03-20T06:26:19.373Z,0.00
2023-03-20T06:27:19.391Z,0.00
2023-03-20T06:28:19.415Z,0.00
2023-03-20T06:29:19.430Z,0.00
2023-03-20T06:30:19.454Z,0.00
2023-03-20T06:31:19.512Z,0.00
2023-03-20T06:32:19.476Z,0.00
2023-03-20T06:33:19.542Z,0.00
2023-03-20T06:34:19.512Z,0.00
2023-03-20T06:35:19.599Z,0.00
2023-03-20T06:36:19.536Z,0.00
2023-03-20T06:37:19.560Z,0.00
2023-03-20T06:38:19.570Z,0.00
2023-03-20T06:39:19.590Z,0.00
2023-03-20T06:40:19.626Z,0.00
2023-03-20T06:41:33.775Z,0.00
2023-03-20T06:42:19.648Z,0.00
2023-03-20T06:43:19.655Z,0.00
2023-03-20T06:44:19.664Z,0.00
2023-03-20T06:45:19.681Z,0.00
2023-03-20T06:46:19.740Z,0.00
2023-03-20T06:47:19.718Z,0.00
2023-03-20T06:48:19.734Z,0.00
2023-03-20T06:49:19.754Z,0.00
2023-03-20T06:50:19.773Z,0.00
2023-03-20T06:51:19.786Z,0.00
2023-03-20T06:52:19.808Z,0.00
2023-03-20T06:53:19.846Z,0.00
2023-03-20T06:54:19.828Z,0.00
2023-03-20T06:55:19.851Z,0.00
2023-03-20T06:56:19.876Z,0.00
2023-03-20T06:57:19.878Z,0.00
2023-03-20T06:58:19.892Z,0.00
2023-03-20T06:59:19.915Z,0.00
2023-03-20T07:00:19.951Z,0.00
2023-03-20T07:01:20.068Z,0.00
2023-03-20T07:02:19.960Z,0.00
2023-03-20T07:03:19.989Z,0.00
2023-03-20T07:04:20.002Z,0.00
2023-03-20T07:05:20.069Z,0.00
2023-03-20T07:06:20.052Z,0.00
2023-03-20T07:07:20.045Z,0.00
2023-03-20T07:08:20.077Z,0.00
2023-03-20T07:09:20.078Z,0.00
2023-03-20T07:10:20.093Z,0.00
2023-03-20T07:11:20.113Z,0.00
2023-03-20T07:12:20.199Z,0.00
2023-03-20T07:13:20.143Z,0.00
2023-03-20T07:14:20.170Z,0.00
2023-03-20T07:15:20.176Z,0.00
2023-03-20T07:16:20.253Z,0.00
2023-03-20T07:17:20.209Z,0.00
2023-03-20T07:18:20.230Z,0.00
2023-03-20T07:19:20.249Z,0.00
2023-03-20T07:20:20.265Z,0.00
2023-03-20T07:21:20.326Z,0.00
2023-03-20T07:22:20.299Z,0.00
2023-03-20T07:23:20.308Z,0.00
2023-03-20T07:24:20.331Z,0.00
2023-03-20T07:25:31.746Z,0.00
2023-03-20T07:26:20.366Z,0.00
2023-03-20T07:27:20.379Z,0.00
2023-03-20T07:28:20.415Z,0.00
2023-03-20T07:29:20.407Z,0.00
2023-03-20T07:30:20.429Z,0.00
2023-03-20T07:31:20.502Z,0.00
2023-03-20T07:32:20.456Z,0.00
2023-03-20T07:33:20.551Z,0.00
2023-03-20T07:34:20.495Z,0.00
2023-03-20T07:35:20.591Z,0.00
2023-03-20T07:36:20.525Z,0.00
2023-03-20T07:37:20.546Z,0.00
2023-03-20T07:38:20.564Z,0.00
2023-03-20T07:39:20.574Z,0.00
2023-03-20T07:40:20.590Z,0.00
2023-03-20T07:41:20.598Z,0.00
2023-03-20T07:42:20.614Z,0.00
2023-03-20T07:43:20.637Z,0.00
2023-03-20T07:44:20.665Z,0.00
2023-03-20T07:45:20.669Z,0.00
2023-03-20T07:46:20.736Z,0.00
2023-03-20T07:47:20.701Z,0.00
2023-03-20T07:48:20.727Z,0.00
2023-03-20T07:49:20.726Z,0.00
2023-03-20T07:50:20.754Z,0.00
2023-03-20T07:51:20.767Z,0.00
2023-03-20T07:52:20.779Z,0.00
2023-03-20T07:53:20.790Z,0.00
2023-03-20T07:54:20.813Z,0.00
2023-03-20T07:55:20.828Z,0.00
2023-03-20T07:56:20.837Z,0.00
2023-03-20T07:57:20.868Z,0.00
2023-03-20T07:58:20.913Z,0.00
2023-03-20T07:59:20.886Z,0.00
2023-03-20T08:00:20.967Z,0.00
2023-03-20T08:01:20.931Z,0.00
2023-03-20T08:02:20.935Z,0.00
2023-03-20T08:03:21.089Z,0.00
2023-03-20T08:04:21.012Z,0.00
2023-03-20T08:05:20.991Z,0.00
2023-03-20T08:06:21.006Z,0.00
2023-03-20T08:07:21.025Z,0.00
2023-03-20T08:08:21.031Z,0.00
2023-03-20T08:09:21.057Z,0.00
2023-03-20T08:10:21.075Z,0.00
2023-03-20T08:11:21.088Z,0.00
2023-03-20T08:12:21.106Z,0.00
2023-03-20T08:13:21.117Z,0.00
2023-03-20T08:14:21.147Z,0.00
2023-03-20T08:15:21.159Z,0.00
2023-03-20T08:16:21.275Z,0.00
2023-03-20T08:17:21.974Z,0.00
2023-03-20T08:18:21.199Z,0.00
2023-03-20T08:19:21.214Z,0.00
2023-03-20T08:20:21.231Z,0.00
2023-03-20T08:21:21.248Z,0.00
2023-03-20T08:22:21.270Z,0.00
2023-03-20T08:23:21.280Z,0.00
2023-03-20T08:24:21.296Z,0.00
2023-03-20T08:25:21.317Z,0.00
2023-03-20T08:26:21.342Z,0.00
2023-03-20T08:27:21.345Z,0.00
2023-03-20T08:28:21.363Z,0.00
2023-03-20T08:29:21.379Z,0.00
2023-03-20T08:30:21.402Z,0.00
2023-03-20T08:31:21.420Z,0.00
2023-03-20T08:32:21.468Z,0.00
2023-03-20T08:33:21.450Z,0.00
2023-03-20T08:34:23.943Z,0.00
2023-03-20T08:35:32.471Z,0.00
2023-03-20T08:36:21.623Z,0.00
2023-03-20T08:37:21.507Z,0.00
2023-03-20T08:38:21.531Z,0.00
2023-03-20T08:39:21.544Z,0.00
2023-03-20T08:40:21.558Z,0.00
2023-03-20T08:41:21.583Z,0.00
2023-03-20T08:42:21.590Z,0.00
2023-03-20T08:43:21.614Z,0.00
2023-03-20T08:44:21.632Z,0.00
2023-03-20T08:45:21.759Z,0.00
2023-03-20T08:46:21.774Z,0.00
2023-03-20T08:47:21.669Z,0.00
2023-03-20T08:48:21.727Z,0.00
2023-03-20T08:49:21.711Z,0.00
2023-03-20T08:50:21.723Z,0.00
2023-03-20T08:51:21.741Z,0.00
2023-03-20T08:52:21.755Z,0.00
2023-03-20T08:53:22.326Z,0.00
2023-03-20T08:54:21.777Z,0.00
2023-03-20T08:55:21.802Z,0.00
2023-03-20T08:56:21.822Z,0.00
2023-03-20T08:57:21.887Z,0.00
2023-03-20T08:58:21.852Z,0.00
2023-03-20T08:59:21.860Z,0.00
2023-03-20T09:00:21.874Z,0.00
2023-03-20T09:01:21.994Z,0.00
2023-03-20T09:02:22.086Z,0.00
2023-03-20T09:03:22.122Z,0.00
2023-03-20T09:04:21.974Z,0.00
2023-03-20T09:05:21.962Z,0.00
2023-03-20T09:06:21.986Z,0.00
2023-03-20T09:07:21.996Z,0.00
2023-03-20T09:08:22.037Z,0.00
2023-03-20T09:09:22.052Z,0.00
2023-03-20T09:10:22.058Z,0.00
2023-03-20T09:11:22.087Z,0.00
2023-03-20T09:12:22.074Z,0.00
2023-03-20T09:13:27.435Z,0.00
2023-03-20T09:14:22.109Z,0.00
2023-03-20T09:15:22.115Z,0.00
2023-03-20T09:16:22.167Z,0.00
2023-03-20T09:17:22.153Z,0.00
2023-03-20T09:18:22.231Z,0.00
2023-03-20T09:19:22.187Z,0.00
2023-03-20T09:20:22.232Z,0.00
2023-03-20T09:21:22.215Z,0.00
2023-03-20T09:22:22.233Z,0.00
2023-03-20T09:23:22.260Z,0.00
2023-03-20T09:24:22.282Z,0.00
2023-03-20T09:25:22.283Z,0.00
2023-03-20T09:26:22.303Z,0.00
2023-03-20T09:27:22.317Z,0.00
2023-03-20T09:28:22.332Z,0.00
2023-03-20T09:29:22.373Z,0.00
2023-03-20T09:30:22.472Z,0.00
2023-03-20T09:31:22.410Z,0.00
2023-03-20T09:32:22.404Z,0.00
2023-03-20T09:33:22.417Z,4.00
2023-03-20T09:34:22.431Z,4.00
2023-03-20T09:35:22.448Z,4.00
2023-03-20T09:36:22.733Z,4.00
2023-03-20T09:37:22.480Z,4.00
2023-03-20T09:38:22.485Z,4.00
2023-03-20T09:39:22.505Z,4.00
2023-03-20T09:40:22.519Z,4.00
2023-03-20T09:41:22.548Z,0.00
2023-03-20T09:42:22.552Z,4.00
2023-03-20T09:43:22.579Z,4.00
2023-03-20T09:44:22.588Z,0.00
2023-03-20T09:45:22.609Z,0.00
2023-03-20T09:46:22.675Z,0.00
2023-03-20T09:47:22.699Z,0.00
2023-03-20T09:48:22.897Z,0.00
2023-03-20T09:49:22.665Z,0.00
2023-03-20T09:50:22.679Z,0.00
2023-03-20T09:51:22.708Z,0.00
2023-03-20T09:52:22.740Z,4.00
2023-03-20T09:53:22.738Z,4.00
2023-03-20T09:54:22.752Z,4.00
2023-03-20T09:55:22.782Z,4.00
2023-03-20T09:56:22.784Z,4.00
2023-03-20T09:57:22.810Z,4.00
2023-03-20T09:58:22.816Z,4.00
2023-03-20T09:59:22.831Z,4.00
2023-03-20T10:00:23.074Z,4.00
2023-03-20T10:01:22.887Z,4.00
2023-03-20T10:02:22.880Z,4.00
2023-03-20T10:03:22.898Z,4.00
2023-03-20T10:04:22.957Z,4.00
2023-03-20T10:05:22.942Z,4.00
2023-03-20T10:06:22.957Z,4.00
2023-03-20T10:07:22.961Z,4.00
2023-03-20T10:08:22.999Z,4.00
2023-03-20T10:09:23.003Z,4.00
2023-03-20T10:10:23.003Z,4.00
2023-03-20T10:11:23.019Z,4.00
2023-03-20T10:12:23.732Z,4.00
2023-03-20T10:13:23.048Z,4.00
2023-03-20T10:14:23.074Z,4.00
2023-03-20T10:15:23.090Z,4.00
2023-03-20T10:16:23.293Z,4.00
2023-03-20T10:17:23.113Z,4.00
2023-03-20T10:18:23.140Z,8.00
2023-03-20T10:19:23.172Z,4.00
2023-03-20T10:20:23.166Z,4.00
2023-03-20T10:21:23.183Z,4.00
2023-03-20T10:22:23.208Z,8.00
2023-03-20T10:23:23.208Z,8.00
2023-03-20T10:24:23.302Z,12.00
2023-03-20T10:25:23.287Z,16.00
2023-03-20T10:26:23.269Z,8.00
2023-03-20T10:27:24.229Z,12.00
2023-03-20T10:28:23.296Z,8.00
2023-03-20T10:29:23.305Z,4.00
2023-03-20T10:30:23.327Z,4.00
2023-03-20T10:31:23.377Z,8.00
2023-03-20T10:32:23.360Z,4.00
2023-03-20T10:33:23.390Z,8.00
2023-03-20T10:34:23.386Z,8.00
2023-03-20T10:35:23.410Z,8.00
2023-03-20T10:36:23.418Z,8.00
2023-03-20T10:37:23.448Z,8.00
2023-03-20T10:38:23.464Z,8.00
2023-03-20T10:39:23.474Z,8.00
2023-03-20T10:40:23.507Z,8.00
2023-03-20T10:41:23.512Z,4.00
2023-03-20T10:42:23.512Z,8.00
2023-03-20T10:43:23.534Z,4.00
2023-03-20T10:44:23.552Z,8.00
2023-03-20T10:45:23.562Z,4.00
2023-03-20T10:46:23.623Z,8.00
2023-03-20T10:47:23.644Z,16.00
2023-03-20T10:48:23.616Z,12.00
2023-03-20T10:49:23.628Z,12.00
2023-03-20T10:50:23.648Z,8.00
2023-03-20T10:51:23.659Z,4.00
2023-03-20T10:52:23.675Z,4.00
2023-03-20T10:53:23.690Z,8.00
2023-03-20T10:54:23.705Z,8.00
2023-03-20T10:55:23.720Z,4.00
2023-03-20T10:56:23.771Z,8.00
2023-03-20T10:57:23.749Z,8.00
2023-03-20T10:58:23.782Z,8.00
2023-03-20T10:59:23.789Z,8.00
2023-03-20T11:00:23.807Z,8.00
2023-03-20T11:01:23.872Z,8.00
2023-03-20T11:02:23.848Z,8.00
2023-03-20T11:03:23.853Z,8.00
2023-03-20T11:04:23.972Z,16.00
2023-03-20T11:05:23.883Z,8.00
2023-03-20T11:06:23.902Z,12.00
2023-03-20T11:07:23.917Z,12.00
2023-03-20T11:08:23.941Z,20.00
2023-03-20T11:09:23.955Z,20.00
2023-03-20T11:10:23.970Z,20.00
2023-03-20T11:11:23.978Z,20.00
2023-03-20T11:12:24.022Z,20.00
2023-03-20T11:13:24.020Z,20.00
2023-03-20T11:14:24.049Z,16.00
2023-03-20T11:15:24.051Z,16.00
2023-03-20T11:16:24.145Z,16.00
2023-03-20T11:17:24.086Z,12.00
2023-03-20T11:18:24.093Z,16.00
2023-03-20T11:19:24.113Z,8.00
2023-03-20T11:20:24.124Z,12.00
2023-03-20T11:21:24.151Z,8.00
2023-03-20T11:22:24.160Z,12.00
2023-03-20T11:23:24.173Z,12.00
2023-03-20T11:24:24.201Z,8.00
2023-03-20T11:25:24.211Z,8.00
2023-03-20T11:26:24.222Z,12.00
2023-03-20T11:27:24.244Z,8.00
2023-03-20T11:28:24.294Z,12.00
2023-03-20T11:29:24.287Z,8.00
2023-03-20T11:30:24.293Z,8.00
2023-03-20T11:31:24.346Z,8.00
2023-03-20T11:32:24.320Z,12.00
2023-03-20T11:33:24.334Z,12.00
2023-03-20T11:34:24.350Z,12.00
2023-03-20T11:35:24.364Z,8.00
2023-03-20T11:36:26.625Z,8.00
2023-03-20T11:37:24.400Z,8.00
2023-03-20T11:38:24.412Z,8.00
2023-03-20T11:39:24.426Z,8.00
2023-03-20T11:40:24.451Z,8.00
2023-03-20T11:41:24.478Z,8.00
2023-03-20T11:42:24.493Z,8.00
2023-03-20T11:43:24.496Z,8.00
2023-03-20T11:44:24.530Z,8.00
2023-03-20T11:45:24.521Z,8.00
2023-03-20T11:46:24.606Z,4.00
2023-03-20T11:47:24.558Z,8.00
2023-03-20T11:48:24.575Z,4.00
2023-03-20T11:49:24.591Z,8.00
2023-03-20T11:50:24.618Z,8.00
2023-03-20T11:51:24.629Z,8.00
2023-03-20T11:52:24.631Z,8.00
2023-03-20T11:53:24.652Z,12.00
2023-03-20T11:54:24.667Z,12.00
2023-03-20T11:55:24.685Z,8.00
2023-03-20T11:56:24.702Z,8.00
2023-03-20T11:57:24.712Z,8.00
2023-03-20T11:58:24.737Z,8.00
2023-03-20T11:59:24.745Z,8.00
2023-03-20T12:00:24.801Z,8.00
2023-03-20T12:01:24.785Z,8.00
2023-03-20T12:02:24.825Z,8.00
2023-03-20T12:03:24.885Z,8.00
2023-03-20T12:04:24.827Z,8.00
2023-03-20T12:05:24.856Z,8.00
2023-03-20T12:06:24.860Z,8.00
2023-03-20T12:07:24.885Z,12.00
2023-03-20T12:08:24.890Z,8.00
2023-03-20T12:09:24.918Z,12.00
2023-03-20T12:10:24.923Z,8.00
2023-03-20T12:11:24.955Z,8.00
2023-03-20T12:12:24.957Z,12.00
2023-03-20T12:13:25.005Z,12.00
2023-03-20T12:14:24.988Z,12.00
2023-03-20T12:15:25.005Z,8.00
2023-03-20T12:16:25.247Z,8.00
2023-03-20T12:17:25.035Z,8.00
2023-03-20T12:18:25.060Z,8.00
2023-03-20T12:19:25.075Z,8.00
2023-03-20T12:20:25.099Z,8.00
2023-03-20T12:21:25.108Z,8.00
2023-03-20T12:22:25.124Z,8.00
2023-03-20T12:23:25.143Z,8.00
2023-03-20T12:24:25.156Z,8.00
2023-03-20T12:25:25.167Z,8.00
2023-03-20T12:26:25.180Z,12.00
2023-03-20T12:27:25.204Z,16.00
2023-03-20T12:28:25.220Z,16.00
2023-03-20T12:29:25.239Z,16.00
2023-03-20T12:30:25.246Z,16.00
2023-03-20T12:31:25.382Z,16.00
2023-03-20T12:32:25.307Z,20.00
2023-03-20T12:33:25.304Z,20.00
2023-03-20T12:34:25.317Z,20.00
2023-03-20T12:35:25.337Z,20.00
2023-03-20T12:36:25.356Z,316.00
2023-03-20T12:37:25.367Z,348.00
2023-03-20T12:38:25.375Z,360.00
2023-03-20T12:39:25.389Z,364.00
2023-03-20T12:40:27.806Z,364.00
2023-03-20T12:41:25.427Z,360.00
2023-03-20T12:42:25.447Z,360.00
2023-03-20T12:43:25.465Z,356.00
2023-03-20T12:44:25.481Z,356.00
2023-03-20T12:45:25.487Z,332.00
2023-03-20T12:46:25.569Z,356.00
2023-03-20T12:47:25.530Z,360.00
2023-03-20T12:48:25.572Z,368.00
2023-03-20T12:49:25.550Z,360.00
2023-03-20T12:50:25.578Z,364.00
2023-03-20T12:51:25.583Z,364.00
2023-03-20T12:52:25.599Z,364.00
2023-03-20T12:53:25.643Z,364.00
2023-03-20T12:54:25.641Z,360.00
2023-03-20T12:55:25.653Z,364.00
2023-03-20T12:56:25.662Z,12.00
2023-03-20T12:57:26.089Z,12.00
2023-03-20T12:58:25.772Z,12.00
2023-03-20T12:59:25.716Z,12.00
2023-03-20T13:00:25.730Z,8.00
2023-03-20T13:01:25.766Z,12.00
2023-03-20T13:02:25.787Z,12.00
2023-03-20T13:03:25.768Z,8.00
2023-03-20T13:04:25.810Z,12.00
2023-03-20T13:05:25.806Z,12.00
2023-03-20T13:06:25.824Z,12.00
2023-03-20T13:07:25.836Z,12.00
2023-03-20T13:08:25.854Z,8.00
2023-03-20T13:09:25.902Z,8.00
2023-03-20T13:10:25.884Z,8.00
2023-03-20T13:11:25.892Z,8.00
2023-03-20T13:12:25.910Z,8.00
2023-03-20T13:13:25.930Z,12.00
2023-03-20T13:14:25.939Z,12.00
2023-03-20T13:15:25.963Z,12.00